sensor_id;sensor_type;location;lat;lon;timestamp;P1;durP1;ratioP1;P2;durP2;ratioP2
51995;SDS011;38010;53.264;6.592;2023-07-13T00:02:22;0.10;;;0.10;;
51995;SDS011;38010;53.264;6.592;2023-07-13T00:04:50;0.20;;;0.20;;
51995;SDS011;38010;53.264;6.592;2023-07-13T00:07:16;0.20;;;0.20;;
51995;SDS011;38010;53.264;6.592;2023-07-13T00:09:45;0.20;;;0.20;;
51995;SDS011;38010;53.264;6.592;2023-07-13T00:12:32;0.20;;;0.20;;
51995;SDS011;38010;53.264;6.592;2023-07-13T00:15:02;0.10;;;0.10;;
51995;SDS011;38010;53.264;6.592;2023-07-13T00:17:36;0.10;;;0.10;;
51995;SDS011;38010;53.264;6.592;2023-07-13T00:20:04;0.17;;;0.17;;
51995;SDS011;38010;53.264;6.592;2023-07-13T00:22:33;0.20;;;0.20;;
51995;SDS011;38010;53.264;6.592;2023-07-13T00:24:59;0.20;;;0.20;;
51995;SDS011;38010;53.264;6.592;2023-07-13T00:27:24;0.20;;;0.20;;
51995;SDS011;38010;53.264;6.592;2023-07-13T00:29:53;0.20;;;0.20;;
51995;SDS011;38010;53.264;6.592;2023-07-13T00:32:19;0.43;;;0.20;;
51995;SDS011;38010;53.264;6.592;2023-07-13T00:34:45;0.20;;;0.20;;
51995;SDS011;38010;53.264;6.592;2023-07-13T00:37:11;0.20;;;0.20;;
51995;SDS011;38010;53.264;6.592;2023-07-13T00:39:37;0.10;;;0.10;;
51995;SDS011;38010;53.264;6.592;2023-07-13T00:42:03;0.20;;;0.20;;
51995;SDS011;38010;53.264;6.592;2023-07-13T00:44:30;0.20;;;0.20;;
51995;SDS011;38010;53.264;6.592;2023-07-13T00:46:57;0.20;;;0.20;;
51995;SDS011;38010;53.264;6.592;2023-07-13T00:49:24;0.10;;;0.10;;
51995;SDS011;38010;53.264;6.592;2023-07-13T00:52:04;0.20;;;0.20;;
51995;SDS011;38010;53.264;6.592;2023-07-13T00:54:33;0.10;;;0.10;;
51995;SDS011;38010;53.264;6.592;2023-07-13T00:57:06;0.20;;;0.20;;
51995;SDS011;38010;53.264;6.592;2023-07-13T00:59:43;0.30;;;0.20;;
51995;SDS011;38010;53.264;6.592;2023-07-13T01:02:14;0.20;;;0.20;;
51995;SDS011;38010;53.264;6.592;2023-07-13T01:04:42;0.20;;;0.20;;
51995;SDS011;38010;53.264;6.592;2023-07-13T01:07:09;0.10;;;0.10;;
51995;SDS011;38010;53.264;6.592;2023-07-13T01:09:37;0.20;;;0.20;;
51995;SDS011;38010;53.264;6.592;2023-07-13T01:12:02;0.10;;;0.10;;
51995;SDS011;38010;53.264;6.592;2023-07-13T01:14:29;0.10;;;0.10;;
51995;SDS011;38010;53.264;6.592;2023-07-13T01:16:55;0.10;;;0.10;;
51995;SDS011;38010;53.264;6.592;2023-07-13T01:19:55;0.10;;;0.10;;
51995;SDS011;38010;53.264;6.592;2023-07-13T01:22:16;0.20;;;0.20;;
51995;SDS011;38010;53.264;6.592;2023-07-13T01:24:44;0.20;;;0.20;;
51995;SDS011;38010;53.264;6.592;2023-07-13T01:27:13;0.20;;;0.20;;
51995;SDS011;38010;53.264;6.592;2023-07-13T01:29:42;0.15;;;0.15;;
51995;SDS011;38010;53.264;6.592;2023-07-13T01:32:10;0.10;;;0.10;;
51995;SDS011;38010;53.264;6.592;2023-07-13T01:34:38;0.20;;;0.20;;
51995;SDS011;38010;53.264;6.592;2023-07-13T01:37:08;0.10;;;0.10;;
51995;SDS011;38010;53.264;6.592;2023-07-13T01:39:36;0.20;;;0.20;;
51995;SDS011;38010;53.264;6.592;2023-07-13T01:42:03;0.13;;;0.13;;
51995;SDS011;38010;53.264;6.592;2023-07-13T01:44:29;0.20;;;0.20;;
51995;SDS011;38010;53.264;6.592;2023-07-13T01:47:04;0.20;;;0.20;;
51995;SDS011;38010;53.264;6.592;2023-07-13T01:49:31;0.17;;;0.17;;
51995;SDS011;38010;53.264;6.592;2023-07-13T01:51:57;0.20;;;0.20;;
51995;SDS011;38010;53.264;6.592;2023-07-13T01:54:23;0.20;;;0.20;;
51995;SDS011;38010;53.264;6.592;2023-07-13T01:56:48;0.10;;;0.10;;
51995;SDS011;38010;53.264;6.592;2023-07-13T01:59:14;0.20;;;0.20;;
51995;SDS011;38010;53.264;6.592;2023-07-13T02:01:41;0.10;;;0.10;;
51995;SDS011;38010;53.264;6.592;2023-07-13T02:04:06;0.20;;;0.20;;
51995;SDS011;38010;53.264;6.592;2023-07-13T02:06:33;0.20;;;0.20;;
51995;SDS011;38010;53.264;6.592;2023-07-13T02:08:59;0.20;;;0.20;;
51995;SDS011;38010;53.264;6.592;2023-07-13T02:11:25;0.13;;;0.13;;
51995;SDS011;38010;53.264;6.592;2023-07-13T02:13:59;0.10;;;0.10;;
51995;SDS011;38010;53.264;6.592;2023-07-13T02:16:25;0.17;;;0.17;;
51995;SDS011;38010;53.264;6.592;2023-07-13T02:18:51;0.17;;;0.17;;
51995;SDS011;38010;53.264;6.592;2023-07-13T02:21:18;0.10;;;0.10;;
51995;SDS011;38010;53.264;6.592;2023-07-13T02:23:43;0.25;;;0.20;;
51995;SDS011;38010;53.264;6.592;2023-07-13T02:26:09;0.20;;;0.20;;
51995;SDS011;38010;53.264;6.592;2023-07-13T02:28:35;0.20;;;0.20;;
51995;SDS011;38010;53.264;6.592;2023-07-13T02:31:07;0.20;;;0.20;;
51995;SDS011;38010;53.264;6.592;2023-07-13T02:33:35;0.10;;;0.10;;
51995;SDS011;38010;53.264;6.592;2023-07-13T02:36:01;0.20;;;0.20;;
51995;SDS011;38010;53.264;6.592;2023-07-13T02:38:28;0.20;;;0.20;;
51995;SDS011;38010;53.264;6.592;2023-07-13T02:40:54;0.10;;;0.10;;
51995;SDS011;38010;53.264;6.592;2023-07-13T02:43:20;0.10;;;0.10;;
51995;SDS011;38010;53.264;6.592;2023-07-13T02:45:46;0.20;;;0.20;;
51995;SDS011;38010;53.264;6.592;2023-07-13T02:48:13;0.10;;;0.10;;
51995;SDS011;38010;53.264;6.592;2023-07-13T02:50:41;0.20;;;0.20;;
51995;SDS011;38010;53.264;6.592;2023-07-13T02:53:07;0.25;;;0.15;;
51995;SDS011;38010;53.264;6.592;2023-07-13T02:55:33;0.20;;;0.20;;
51995;SDS011;38010;53.264;6.592;2023-07-13T02:57:59;0.10;;;0.10;;
51995;SDS011;38010;53.264;6.592;2023-07-13T03:00:25;0.13;;;0.13;;
51995;SDS011;38010;53.264;6.592;2023-07-13T03:02:50;0.10;;;0.10;;
51995;SDS011;38010;53.264;6.592;2023-07-13T03:05:18;0.10;;;0.10;;
51995;SDS011;38010;53.264;6.592;2023-07-13T03:07:46;0.20;;;0.20;;
51995;SDS011;38010;53.264;6.592;2023-07-13T03:10:11;0.20;;;0.20;;
51995;SDS011;38010;53.264;6.592;2023-07-13T03:12:43;0.10;;;0.10;;
51995;SDS011;38010;53.264;6.592;2023-07-13T03:15:15;0.20;;;0.20;;
51995;SDS011;38010;53.264;6.592;2023-07-13T03:17:40;0.20;;;0.20;;
51995;SDS011;38010;53.264;6.592;2023-07-13T03:20:06;0.10;;;0.10;;
51995;SDS011;38010;53.264;6.592;2023-07-13T03:22:32;0.17;;;0.10;;
51995;SDS011;38010;53.264;6.592;2023-07-13T03:24:59;0.10;;;0.10;;
51995;SDS011;38010;53.264;6.592;2023-07-13T03:27:25;0.10;;;0.10;;
51995;SDS011;38010;53.264;6.592;2023-07-13T03:29:50;0.20;;;0.20;;
51995;SDS011;38010;53.264;6.592;2023-07-13T03:32:17;0.20;;;0.20;;
51995;SDS011;38010;53.264;6.592;2023-07-13T03:34:43;0.20;;;0.20;;
51995;SDS011;38010;53.264;6.592;2023-07-13T03:37:09;0.10;;;0.10;;
51995;SDS011;38010;53.264;6.592;2023-07-13T03:39:35;0.10;;;0.10;;
51995;SDS011;38010;53.264;6.592;2023-07-13T03:42:00;0.20;;;0.20;;
51995;SDS011;38010;53.264;6.592;2023-07-13T03:44:27;0.10;;;0.10;;
51995;SDS011;38010;53.264;6.592;2023-07-13T03:46:53;0.15;;;0.15;;
51995;SDS011;38010;53.264;6.592;2023-07-13T03:49:20;0.20;;;0.20;;
51995;SDS011;38010;53.264;6.592;2023-07-13T03:51:46;0.20;;;0.20;;
51995;SDS011;38010;53.264;6.592;2023-07-13T03:54:12;0.13;;;0.13;;
51995;SDS011;38010;53.264;6.592;2023-07-13T03:56:38;0.20;;;0.20;;
51995;SDS011;38010;53.264;6.592;2023-07-13T03:59:04;0.20;;;0.20;;
51995;SDS011;38010;53.264;6.592;2023-07-13T04:01:29;0.20;;;0.20;;
51995;SDS011;38010;53.264;6.592;2023-07-13T04:03:56;0.15;;;0.15;;
51995;SDS011;38010;53.264;6.592;2023-07-13T04:06:23;0.10;;;0.10;;
51995;SDS011;38010;53.264;6.592;2023-07-13T04:08:53;0.25;;;0.20;;
51995;SDS011;38010;53.264;6.592;2023-07-13T04:11:21;0.20;;;0.20;;
51995;SDS011;38010;53.264;6.592;2023-07-13T04:13:49;0.20;;;0.20;;
51995;SDS011;38010;53.264;6.592;2023-07-13T04:16:15;0.20;;;0.20;;
51995;SDS011;38010;53.264;6.592;2023-07-13T04:18:43;0.10;;;0.10;;
51995;SDS011;38010;53.264;6.592;2023-07-13T04:21:10;0.63;;;0.20;;
51995;SDS011;38010;53.264;6.592;2023-07-13T04:23:36;0.10;;;0.10;;
51995;SDS011;38010;53.264;6.592;2023-07-13T04:26:03;0.20;;;0.20;;
51995;SDS011;38010;53.264;6.592;2023-07-13T04:28:30;0.20;;;0.20;;
51995;SDS011;38010;53.264;6.592;2023-07-13T04:30:56;0.10;;;0.10;;
51995;SDS011;38010;53.264;6.592;2023-07-13T04:33:21;0.20;;;0.20;;
51995;SDS011;38010;53.264;6.592;2023-07-13T04:35:51;0.20;;;0.20;;
51995;SDS011;38010;53.264;6.592;2023-07-13T04:38:21;0.10;;;0.10;;
51995;SDS011;38010;53.264;6.592;2023-07-13T04:40:57;0.20;;;0.20;;
51995;SDS011;38010;53.264;6.592;2023-07-13T04:43:25;0.20;;;0.20;;
51995;SDS011;38010;53.264;6.592;2023-07-13T04:45:52;0.20;;;0.20;;
51995;SDS011;38010;53.264;6.592;2023-07-13T04:48:18;0.20;;;0.20;;
51995;SDS011;38010;53.264;6.592;2023-07-13T04:50:45;0.20;;;0.20;;
51995;SDS011;38010;53.264;6.592;2023-07-13T04:53:11;0.20;;;0.20;;
51995;SDS011;38010;53.264;6.592;2023-07-13T04:55:38;0.10;;;0.10;;
51995;SDS011;38010;53.264;6.592;2023-07-13T04:58:04;0.17;;;0.17;;
51995;SDS011;38010;53.264;6.592;2023-07-13T05:00:30;0.20;;;0.20;;
51995;SDS011;38010;53.264;6.592;2023-07-13T05:02:57;0.20;;;0.20;;
51995;SDS011;38010;53.264;6.592;2023-07-13T05:05:24;1.08;;;0.20;;
51995;SDS011;38010;53.264;6.592;2023-07-13T05:07:51;0.40;;;0.30;;
51995;SDS011;38010;53.264;6.592;2023-07-13T05:10:18;0.20;;;0.20;;
51995;SDS011;38010;53.264;6.592;2023-07-13T05:12:44;0.20;;;0.20;;
51995;SDS011;38010;53.264;6.592;2023-07-13T05:15:10;0.40;;;0.20;;
51995;SDS011;38010;53.264;6.592;2023-07-13T05:17:37;0.20;;;0.20;;
51995;SDS011;38010;53.264;6.592;2023-07-13T05:20:10;0.20;;;0.20;;
51995;SDS011;38010;53.264;6.592;2023-07-13T05:22:36;0.30;;;0.30;;
51995;SDS011;38010;53.264;6.592;2023-07-13T05:25:06;0.28;;;0.22;;
51995;SDS011;38010;53.264;6.592;2023-07-13T05:27:34;0.25;;;0.20;;
51995;SDS011;38010;53.264;6.592;2023-07-13T05:30:02;0.20;;;0.20;;
51995;SDS011;38010;53.264;6.592;2023-07-13T05:32:28;7.05;;;6.43;;
51995;SDS011;38010;53.264;6.592;2023-07-13T05:34:54;10.18;;;9.18;;
51995;SDS011;38010;53.264;6.592;2023-07-13T05:37:20;6.97;;;6.38;;
51995;SDS011;38010;53.264;6.592;2023-07-13T05:39:46;7.53;;;6.82;;
51995;SDS011;38010;53.264;6.592;2023-07-13T05:42:12;6.68;;;5.95;;
51995;SDS011;38010;53.264;6.592;2023-07-13T05:44:38;5.90;;;5.40;;
51995;SDS011;38010;53.264;6.592;2023-07-13T05:47:05;6.05;;;5.55;;
51995;SDS011;38010;53.264;6.592;2023-07-13T05:49:34;5.60;;;5.10;;
51995;SDS011;38010;53.264;6.592;2023-07-13T05:51:59;4.90;;;4.40;;
51995;SDS011;38010;53.264;6.592;2023-07-13T05:54:27;5.00;;;4.32;;
51995;SDS011;38010;53.264;6.592;2023-07-13T05:56:53;4.15;;;3.85;;
51995;SDS011;38010;53.264;6.592;2023-07-13T05:59:18;4.53;;;4.13;;
51995;SDS011;38010;53.264;6.592;2023-07-13T06:01:45;4.05;;;3.75;;
51995;SDS011;38010;53.264;6.592;2023-07-13T06:04:11;3.70;;;3.40;;
51995;SDS011;38010;53.264;6.592;2023-07-13T06:06:37;3.20;;;2.90;;
51995;SDS011;38010;53.264;6.592;2023-07-13T06:09:03;3.33;;;3.03;;
51995;SDS011;38010;53.264;6.592;2023-07-13T06:11:28;3.13;;;2.83;;
51995;SDS011;38010;53.264;6.592;2023-07-13T06:13:55;2.70;;;2.50;;
51995;SDS011;38010;53.264;6.592;2023-07-13T06:16:21;2.50;;;2.30;;
51995;SDS011;38010;53.264;6.592;2023-07-13T06:18:48;2.20;;;2.00;;
51995;SDS011;38010;53.264;6.592;2023-07-13T06:21:15;2.00;;;1.90;;
51995;SDS011;38010;53.264;6.592;2023-07-13T06:23:43;2.40;;;2.20;;
51995;SDS011;38010;53.264;6.592;2023-07-13T06:26:10;2.08;;;1.88;;
51995;SDS011;38010;53.264;6.592;2023-07-13T06:28:37;2.00;;;1.90;;
51995;SDS011;38010;53.264;6.592;2023-07-13T06:31:06;1.67;;;1.52;;
51995;SDS011;38010;53.264;6.592;2023-07-13T06:33:33;1.58;;;1.48;;
51995;SDS011;38010;53.264;6.592;2023-07-13T06:36:01;1.60;;;1.50;;
51995;SDS011;38010;53.264;6.592;2023-07-13T06:38:28;1.50;;;1.40;;
51995;SDS011;38010;53.264;6.592;2023-07-13T06:40:54;1.30;;;1.20;;
51995;SDS011;38010;53.264;6.592;2023-07-13T06:43:20;1.60;;;1.50;;
51995;SDS011;38010;53.264;6.592;2023-07-13T06:45:46;1.40;;;1.30;;
51995;SDS011;38010;53.264;6.592;2023-07-13T06:48:15;1.20;;;1.10;;
51995;SDS011;38010;53.264;6.592;2023-07-13T06:50:42;1.25;;;1.15;;
51995;SDS011;38010;53.264;6.592;2023-07-13T06:53:09;1.15;;;1.05;;
51995;SDS011;38010;53.264;6.592;2023-07-13T06:55:36;0.98;;;0.90;;
51995;SDS011;38010;53.264;6.592;2023-07-13T06:58:02;1.05;;;0.90;;
51995;SDS011;38010;53.264;6.592;2023-07-13T07:00:28;1.00;;;0.85;;
51995;SDS011;38010;53.264;6.592;2023-07-13T07:02:55;1.00;;;0.90;;
51995;SDS011;38010;53.264;6.592;2023-07-13T07:05:21;0.80;;;0.80;;
51995;SDS011;38010;53.264;6.592;2023-07-13T07:07:50;0.70;;;0.70;;
51995;SDS011;38010;53.264;6.592;2023-07-13T07:10:18;0.60;;;0.60;;
51995;SDS011;38010;53.264;6.592;2023-07-13T07:12:44;0.70;;;0.70;;
51995;SDS011;38010;53.264;6.592;2023-07-13T07:15:10;0.57;;;0.57;;
51995;SDS011;38010;53.264;6.592;2023-07-13T07:17:36;0.60;;;0.60;;
51995;SDS011;38010;53.264;6.592;2023-07-13T07:20:02;0.60;;;0.60;;
51995;SDS011;38010;53.264;6.592;2023-07-13T07:22:29;0.60;;;0.60;;
51995;SDS011;38010;53.264;6.592;2023-07-13T07:24:56;0.60;;;0.60;;
51995;SDS011;38010;53.264;6.592;2023-07-13T07:27:22;0.45;;;0.45;;
51995;SDS011;38010;53.264;6.592;2023-07-13T07:29:49;0.55;;;0.55;;
51995;SDS011;38010;53.264;6.592;2023-07-13T07:32:15;0.80;;;0.47;;
51995;SDS011;38010;53.264;6.592;2023-07-13T07:34:41;0.50;;;0.40;;
51995;SDS011;38010;53.264;6.592;2023-07-13T07:37:09;0.40;;;0.40;;
51995;SDS011;38010;53.264;6.592;2023-07-13T07:39:37;0.40;;;0.40;;
51995;SDS011;38010;53.264;6.592;2023-07-13T07:42:03;0.40;;;0.40;;
51995;SDS011;38010;53.264;6.592;2023-07-13T07:44:30;0.30;;;0.30;;
51995;SDS011;38010;53.264;6.592;2023-07-13T07:46:57;0.30;;;0.30;;
51995;SDS011;38010;53.264;6.592;2023-07-13T07:49:23;0.40;;;0.40;;
51995;SDS011;38010;53.264;6.592;2023-07-13T07:51:49;0.40;;;0.40;;
51995;SDS011;38010;53.264;6.592;2023-07-13T07:54:16;0.40;;;0.40;;
51995;SDS011;38010;53.264;6.592;2023-07-13T07:56:42;0.25;;;0.25;;
51995;SDS011;38010;53.264;6.592;2023-07-13T07:59:08;0.30;;;0.30;;
51995;SDS011;38010;53.264;6.592;2023-07-13T08:01:34;0.47;;;0.47;;
51995;SDS011;38010;53.264;6.592;2023-07-13T08:04:00;0.22;;;0.22;;
51995;SDS011;38010;53.264;6.592;2023-07-13T08:06:26;0.30;;;0.30;;
51995;SDS011;38010;53.264;6.592;2023-07-13T08:08:52;0.28;;;0.28;;
51995;SDS011;38010;53.264;6.592;2023-07-13T08:11:17;0.20;;;0.20;;
51995;SDS011;38010;53.264;6.592;2023-07-13T08:13:43;0.30;;;0.30;;
51995;SDS011;38010;53.264;6.592;2023-07-13T08:16:09;0.25;;;0.25;;
51995;SDS011;38010;53.264;6.592;2023-07-13T08:18:36;0.30;;;0.30;;
51995;SDS011;38010;53.264;6.592;2023-07-13T08:21:04;0.20;;;0.20;;
51995;SDS011;38010;53.264;6.592;2023-07-13T08:23:31;0.30;;;0.30;;
51995;SDS011;38010;53.264;6.592;2023-07-13T08:25:57;0.30;;;0.30;;
51995;SDS011;38010;53.264;6.592;2023-07-13T08:28:23;0.20;;;0.20;;
51995;SDS011;38010;53.264;6.592;2023-07-13T08:30:49;0.20;;;0.20;;
51995;SDS011;38010;53.264;6.592;2023-07-13T08:33:16;0.20;;;0.20;;
51995;SDS011;38010;53.264;6.592;2023-07-13T08:35:50;0.20;;;0.20;;
51995;SDS011;38010;53.264;6.592;2023-07-13T08:38:17;0.20;;;0.20;;
51995;SDS011;38010;53.264;6.592;2023-07-13T08:40:43;0.20;;;0.20;;
51995;SDS011;38010;53.264;6.592;2023-07-13T08:43:16;0.20;;;0.20;;
51995;SDS011;38010;53.264;6.592;2023-07-13T08:51:39;0.20;;;0.20;;
51995;SDS011;38010;53.264;6.592;2023-07-13T08:54:33;0.30;;;0.20;;
51995;SDS011;38010;53.264;6.592;2023-07-13T08:57:03;0.20;;;0.20;;
51995;SDS011;38010;53.264;6.592;2023-07-13T08:59:39;0.20;;;0.20;;
51995;SDS011;38010;53.264;6.592;2023-07-13T09:10:30;0.20;;;0.20;;
51995;SDS011;38010;53.264;6.592;2023-07-13T09:13:07;0.20;;;0.20;;
51995;SDS011;38010;53.264;6.592;2023-07-13T09:15:41;0.20;;;0.20;;
51995;SDS011;38010;53.264;6.592;2023-07-13T09:21:10;0.10;;;0.10;;
51995;SDS011;38010;53.264;6.592;2023-07-13T09:23:58;0.10;;;0.10;;
51995;SDS011;38010;53.264;6.592;2023-07-13T09:26:27;0.20;;;0.20;;
51995;SDS011;38010;53.264;6.592;2023-07-13T09:29:19;0.20;;;0.20;;
51995;SDS011;38010;53.264;6.592;2023-07-13T09:31:49;0.10;;;0.10;;
51995;SDS011;38010;53.264;6.592;2023-07-13T09:34:19;0.20;;;0.20;;
51995;SDS011;38010;53.264;6.592;2023-07-13T09:36:46;0.20;;;0.20;;
51995;SDS011;38010;53.264;6.592;2023-07-13T09:42:20;0.15;;;0.15;;
51995;SDS011;38010;53.264;6.592;2023-07-13T09:47:28;0.10;;;0.10;;
51995;SDS011;38010;53.264;6.592;2023-07-13T09:52:26;0.20;;;0.20;;
51995;SDS011;38010;53.264;6.592;2023-07-13T09:54:54;0.10;;;0.10;;
51995;SDS011;38010;53.264;6.592;2023-07-13T09:57:27;0.20;;;0.20;;
51995;SDS011;38010;53.264;6.592;2023-07-13T09:59:54;0.20;;;0.20;;
51995;SDS011;38010;53.264;6.592;2023-07-13T10:05:11;0.10;;;0.10;;
51995;SDS011;38010;53.264;6.592;2023-07-13T10:07:44;0.10;;;0.10;;
51995;SDS011;38010;53.264;6.592;2023-07-13T10:10:14;0.10;;;0.10;;
51995;SDS011;38010;53.264;6.592;2023-07-13T10:12:48;0.10;;;0.10;;
51995;SDS011;38010;53.264;6.592;2023-07-13T10:15:21;0.15;;;0.15;;
51995;SDS011;38010;53.264;6.592;2023-07-13T10:17:49;0.20;;;0.20;;
51995;SDS011;38010;53.264;6.592;2023-07-13T10:20:16;0.15;;;0.15;;
51995;SDS011;38010;53.264;6.592;2023-07-13T10:25:33;0.15;;;0.15;;
51995;SDS011;38010;53.264;6.592;2023-07-13T10:28:03;0.13;;;0.13;;
51995;SDS011;38010;53.264;6.592;2023-07-13T10:30:48;0.10;;;0.10;;
51995;SDS011;38010;53.264;6.592;2023-07-13T10:33:16;0.10;;;0.10;;
51995;SDS011;38010;53.264;6.592;2023-07-13T10:39:01;0.10;;;0.10;;
51995;SDS011;38010;53.264;6.592;2023-07-13T10:41:30;0.10;;;0.10;;
51995;SDS011;38010;53.264;6.592;2023-07-13T10:44:03;0.20;;;0.20;;
51995;SDS011;38010;53.264;6.592;2023-07-13T10:46:31;0.10;;;0.10;;
51995;SDS011;38010;53.264;6.592;2023-07-13T10:48:58;0.10;;;0.10;;
51995;SDS011;38010;53.264;6.592;2023-07-13T10:51:27;0.10;;;0.10;;
51995;SDS011;38010;53.264;6.592;2023-07-13T10:56:38;0.20;;;0.20;;
51995;SDS011;38010;53.264;6.592;2023-07-13T11:04:45;0.10;;;0.10;;
51995;SDS011;38010;53.264;6.592;2023-07-13T11:07:20;0.10;;;0.10;;
51995;SDS011;38010;53.264;6.592;2023-07-13T11:09:54;0.10;;;0.10;;
51995;SDS011;38010;53.264;6.592;2023-07-13T11:18:03;0.10;;;0.10;;
51995;SDS011;38010;53.264;6.592;2023-07-13T11:20:32;0.40;;;0.10;;
51995;SDS011;38010;53.264;6.592;2023-07-13T11:25:43;0.10;;;0.10;;
51995;SDS011;38010;53.264;6.592;2023-07-13T11:36:13;0.10;;;0.10;;
51995;SDS011;38010;53.264;6.592;2023-07-13T11:38:42;0.10;;;0.10;;
51995;SDS011;38010;53.264;6.592;2023-07-13T11:41:31;0.10;;;0.10;;
51995;SDS011;38010;53.264;6.592;2023-07-13T11:46:48;0.20;;;0.20;;
51995;SDS011;38010;53.264;6.592;2023-07-13T11:49:17;0.10;;;0.10;;
51995;SDS011;38010;53.264;6.592;2023-07-13T11:51:44;0.30;;;0.20;;
51995;SDS011;38010;53.264;6.592;2023-07-13T11:54:54;0.20;;;0.20;;
51995;SDS011;38010;53.264;6.592;2023-07-13T11:57:33;0.10;;;0.10;;
51995;SDS011;38010;53.264;6.592;2023-07-13T12:00:11;0.10;;;0.10;;
51995;SDS011;38010;53.264;6.592;2023-07-13T12:02:42;0.10;;;0.10;;
51995;SDS011;38010;53.264;6.592;2023-07-13T12:05:15;0.10;;;0.10;;
51995;SDS011;38010;53.264;6.592;2023-07-13T12:07:43;0.20;;;0.20;;
51995;SDS011;38010;53.264;6.592;2023-07-13T12:12:37;0.10;;;0.10;;
51995;SDS011;38010;53.264;6.592;2023-07-13T12:15:10;0.10;;;0.10;;
51995;SDS011;38010;53.264;6.592;2023-07-13T12:17:37;0.10;;;0.10;;
51995;SDS011;38010;53.264;6.592;2023-07-13T12:20:25;0.10;;;0.10;;
51995;SDS011;38010;53.264;6.592;2023-07-13T12:22:52;0.10;;;0.10;;
51995;SDS011;38010;53.264;6.592;2023-07-13T12:25:19;0.10;;;0.10;;
51995;SDS011;38010;53.264;6.592;2023-07-13T12:27:50;0.10;;;0.10;;
51995;SDS011;38010;53.264;6.592;2023-07-13T12:30:29;0.10;;;0.10;;
51995;SDS011;38010;53.264;6.592;2023-07-13T12:33:11;0.20;;;0.20;;
51995;SDS011;38010;53.264;6.592;2023-07-13T12:35:42;0.15;;;0.15;;
51995;SDS011;38010;53.264;6.592;2023-07-13T12:38:17;0.15;;;0.15;;
51995;SDS011;38010;53.264;6.592;2023-07-13T12:40:48;0.10;;;0.10;;
51995;SDS011;38010;53.264;6.592;2023-07-13T12:43:16;0.10;;;0.10;;
51995;SDS011;38010;53.264;6.592;2023-07-13T12:48:37;0.10;;;0.10;;
51995;SDS011;38010;53.264;6.592;2023-07-13T12:51:03;0.22;;;0.20;;
51995;SDS011;38010;53.264;6.592;2023-07-13T12:53:34;0.10;;;0.10;;
51995;SDS011;38010;53.264;6.592;2023-07-13T12:56:08;0.20;;;0.20;;
51995;SDS011;38010;53.264;6.592;2023-07-13T12:58:42;0.10;;;0.10;;
51995;SDS011;38010;53.264;6.592;2023-07-13T13:01:11;0.10;;;0.10;;
51995;SDS011;38010;53.264;6.592;2023-07-13T13:03:39;0.20;;;0.20;;
51995;SDS011;38010;53.264;6.592;2023-07-13T13:08:46;0.10;;;0.10;;
51995;SDS011;38010;53.264;6.592;2023-07-13T13:11:17;0.15;;;0.15;;
51995;SDS011;38010;53.264;6.592;2023-07-13T13:13:43;0.10;;;0.10;;
51995;SDS011;38010;53.264;6.592;2023-07-13T13:16:19;0.10;;;0.10;;
51995;SDS011;38010;53.264;6.592;2023-07-13T13:21:36;0.15;;;0.15;;
51995;SDS011;38010;53.264;6.592;2023-07-13T13:24:02;0.10;;;0.10;;
51995;SDS011;38010;53.264;6.592;2023-07-13T13:26:29;0.20;;;0.20;;
51995;SDS011;38010;53.264;6.592;2023-07-13T13:28:58;0.10;;;0.10;;
51995;SDS011;38010;53.264;6.592;2023-07-13T13:31:24;0.10;;;0.10;;
51995;SDS011;38010;53.264;6.592;2023-07-13T13:33:50;0.10;;;0.10;;
51995;SDS011;38010;53.264;6.592;2023-07-13T13:36:20;0.10;;;0.10;;
51995;SDS011;38010;53.264;6.592;2023-07-13T13:38:48;0.20;;;0.20;;
51995;SDS011;38010;53.264;6.592;2023-07-13T13:41:15;0.10;;;0.10;;
51995;SDS011;38010;53.264;6.592;2023-07-13T13:43:41;0.10;;;0.10;;
51995;SDS011;38010;53.264;6.592;2023-07-13T13:46:13;0.15;;;0.15;;
51995;SDS011;38010;53.264;6.592;2023-07-13T13:48:54;0.10;;;0.10;;
51995;SDS011;38010;53.264;6.592;2023-07-13T13:51:22;0.10;;;0.10;;
51995;SDS011;38010;53.264;6.592;2023-07-13T13:53:50;0.30;;;0.10;;
51995;SDS011;38010;53.264;6.592;2023-07-13T13:56:18;0.20;;;0.20;;
51995;SDS011;38010;53.264;6.592;2023-07-13T13:58:53;0.10;;;0.10;;
51995;SDS011;38010;53.264;6.592;2023-07-13T14:01:20;0.10;;;0.10;;
51995;SDS011;38010;53.264;6.592;2023-07-13T14:03:48;0.10;;;0.10;;
51995;SDS011;38010;53.264;6.592;2023-07-13T14:06:17;0.10;;;0.10;;
51995;SDS011;38010;53.264;6.592;2023-07-13T14:08:43;0.10;;;0.10;;
51995;SDS011;38010;53.264;6.592;2023-07-13T14:11:13;0.17;;;0.17;;
51995;SDS011;38010;53.264;6.592;2023-07-13T14:13:42;0.10;;;0.10;;
51995;SDS011;38010;53.264;6.592;2023-07-13T14:16:15;0.22;;;0.22;;
51995;SDS011;38010;53.264;6.592;2023-07-13T14:18:45;0.13;;;0.13;;
51995;SDS011;38010;53.264;6.592;2023-07-13T14:21:19;0.10;;;0.10;;
51995;SDS011;38010;53.264;6.592;2023-07-13T14:23:47;0.20;;;0.20;;
51995;SDS011;38010;53.264;6.592;2023-07-13T14:26:16;0.10;;;0.10;;
51995;SDS011;38010;53.264;6.592;2023-07-13T14:28:44;0.10;;;0.10;;
51995;SDS011;38010;53.264;6.592;2023-07-13T14:31:14;0.15;;;0.15;;
51995;SDS011;38010;53.264;6.592;2023-07-13T14:33:42;0.10;;;0.10;;
51995;SDS011;38010;53.264;6.592;2023-07-13T14:38:56;0.10;;;0.10;;
51995;SDS011;38010;53.264;6.592;2023-07-13T14:41:24;0.10;;;0.10;;
51995;SDS011;38010;53.264;6.592;2023-07-13T14:43:50;0.10;;;0.10;;
51995;SDS011;38010;53.264;6.592;2023-07-13T14:46:37;0.10;;;0.10;;
51995;SDS011;38010;53.264;6.592;2023-07-13T14:49:04;0.20;;;0.20;;
51995;SDS011;38010;53.264;6.592;2023-07-13T14:51:36;0.10;;;0.10;;
51995;SDS011;38010;53.264;6.592;2023-07-13T14:54:04;0.20;;;0.20;;
51995;SDS011;38010;53.264;6.592;2023-07-13T14:56:30;0.10;;;0.10;;
51995;SDS011;38010;53.264;6.592;2023-07-13T14:58:57;0.10;;;0.10;;
51995;SDS011;38010;53.264;6.592;2023-07-13T15:01:26;0.10;;;0.10;;
51995;SDS011;38010;53.264;6.592;2023-07-13T15:03:55;0.10;;;0.10;;
51995;SDS011;38010;53.264;6.592;2023-07-13T15:06:23;0.10;;;0.10;;
51995;SDS011;38010;53.264;6.592;2023-07-13T15:08:49;0.20;;;0.20;;
51995;SDS011;38010;53.264;6.592;2023-07-13T15:11:15;0.20;;;0.20;;
51995;SDS011;38010;53.264;6.592;2023-07-13T15:13:43;0.10;;;0.10;;
51995;SDS011;38010;53.264;6.592;2023-07-13T15:16:18;0.40;;;0.10;;
51995;SDS011;38010;53.264;6.592;2023-07-13T15:18:48;0.10;;;0.10;;
51995;SDS011;38010;53.264;6.592;2023-07-13T15:21:18;0.10;;;0.10;;
51995;SDS011;38010;53.264;6.592;2023-07-13T15:23:49;0.10;;;0.10;;
51995;SDS011;38010;53.264;6.592;2023-07-13T15:26:17;0.10;;;0.10;;
51995;SDS011;38010;53.264;6.592;2023-07-13T15:28:45;0.10;;;0.10;;
51995;SDS011;38010;53.264;6.592;2023-07-13T15:31:22;0.10;;;0.10;;
51995;SDS011;38010;53.264;6.592;2023-07-13T15:33:50;0.20;;;0.20;;
51995;SDS011;38010;53.264;6.592;2023-07-13T15:36:20;0.13;;;0.13;;
51995;SDS011;38010;53.264;6.592;2023-07-13T15:38:50;0.43;;;0.10;;
51995;SDS011;38010;53.264;6.592;2023-07-13T15:44:04;0.10;;;0.10;;
51995;SDS011;38010;53.264;6.592;2023-07-13T15:46:45;0.10;;;0.10;;
51995;SDS011;38010;53.264;6.592;2023-07-13T15:49:11;0.10;;;0.10;;
51995;SDS011;38010;53.264;6.592;2023-07-13T15:51:37;0.15;;;0.15;;
51995;SDS011;38010;53.264;6.592;2023-07-13T15:54:03;0.10;;;0.10;;
51995;SDS011;38010;53.264;6.592;2023-07-13T15:56:34;0.15;;;0.15;;
51995;SDS011;38010;53.264;6.592;2023-07-13T15:59:03;0.10;;;0.10;;
51995;SDS011;38010;53.264;6.592;2023-07-13T16:01:30;0.20;;;0.20;;
51995;SDS011;38010;53.264;6.592;2023-07-13T16:03:57;0.13;;;0.13;;
51995;SDS011;38010;53.264;6.592;2023-07-13T16:06:34;0.10;;;0.10;;
51995;SDS011;38010;53.264;6.592;2023-07-13T16:09:03;0.10;;;0.10;;
51995;SDS011;38010;53.264;6.592;2023-07-13T16:11:34;0.10;;;0.10;;
51995;SDS011;38010;53.264;6.592;2023-07-13T16:14:02;0.43;;;0.10;;
51995;SDS011;38010;53.264;6.592;2023-07-13T16:16:31;0.10;;;0.10;;